Hauptseite
METAR-TAF:

METAR-TAF

Flughäfen :

Fliegerhorst Holzdorf

Holzdorf, Deutschland

Breite: 51-46N, Länge: 013-11E, Höhe: 79 m

Beobachtung

Neuester Wetterbericht von vor 17 Minuten, um 05:04 UTC
Wind 6 kt aus West/Nordwest
Temperatur 11°C
Luftfeuchtigkeit 94%
Luftdruck 1019 hPa
Sichtweite: 5000 m
Aufgelockert bewölkt in der Höhe von 500 ft
Durchbrochene Bewölkung in der Höhe von 1500 ft
Sprühregen leicht

METAR: ETSH 240504Z 30006KT 5000 -DZ SCT005 BKN015 11/10 Q1019 WHT

Zeit: 07:21 (05:21 UTC)


TAF: fehlend

Wetterbeobachtungen und Prognosen von mehr als 4000 Flughäfen (METAR und TAF Bericht).

Die verfügbaren Stationen werden durch gelbe und rote Markierungen auf der Karte dargestellt.

Führen Sie die Maus auf sie, um den Namen der Station zu sehen.

Darauf klicken, um die Beobachtung von Wetterbeobachtungen und Prognosen zu sehen.

Um die Karte zu ändern : klicken Sie auf den grünen Tasten mit einem schwarzen Kreuz Zum Vergrößern, auf den grünen Button mit einem Gedankenstrich zu verkleinern, oder auf die grünen Pfeile für benachbarte Karten.


METAR-TAF: